sensor_id;sensor_type;location;lat;lon;timestamp;pressure;altitude;pressure_sealevel;temperature;humidity
70248;BME280;57641;51.416;5.506;2023-02-11T00:00:58;103616.84;;;10.74;59.69
70248;BME280;57641;51.416;5.506;2023-02-11T00:03:24;103615.75;;;10.78;58.99
70248;BME280;57641;51.416;5.506;2023-02-11T00:06:02;103604.22;;;10.62;59.50
70248;BME280;57641;51.416;5.506;2023-02-11T00:08:28;103605.44;;;10.56;60.06
70248;BME280;57641;51.416;5.506;2023-02-11T00:10:55;103594.56;;;10.43;60.21
70248;BME280;57641;51.416;5.506;2023-02-11T00:13:25;103588.63;;;10.54;59.99
70248;BME280;57641;51.416;5.506;2023-02-11T00:15:51;103583.50;;;10.51;59.69
70248;BME280;57641;51.416;5.506;2023-02-11T00:18:16;103587.88;;;10.52;59.66
70248;BME280;57641;51.416;5.506;2023-02-11T00:20:42;103588.09;;;10.32;61.27
70248;BME280;57641;51.416;5.506;2023-02-11T00:23:08;103579.25;;;10.47;60.10
70248;BME280;57641;51.416;5.506;2023-02-11T00:25:39;103581.41;;;10.40;60.51
70248;BME280;57641;51.416;5.506;2023-02-11T00:28:06;103574.69;;;10.33;60.29
70248;BME280;57641;51.416;5.506;2023-02-11T00:30:32;103563.09;;;10.50;60.34
70248;BME280;57641;51.416;5.506;2023-02-11T00:33:01;103562.50;;;10.29;60.00
70248;BME280;57641;51.416;5.506;2023-02-11T00:35:27;103570.91;;;10.37;60.58
70248;BME280;57641;51.416;5.506;2023-02-11T00:37:54;103571.78;;;10.53;59.53
70248;BME280;57641;51.416;5.506;2023-02-11T00:40:21;103568.09;;;10.40;60.33
70248;BME280;57641;51.416;5.506;2023-02-11T00:42:50;103566.63;;;10.50;60.29
70248;BME280;57641;51.416;5.506;2023-02-11T00:45:16;103568.25;;;10.53;59.81
70248;BME280;57641;51.416;5.506;2023-02-11T00:47:45;103563.88;;;10.52;60.12
70248;BME280;57641;51.416;5.506;2023-02-11T00:50:10;103563.16;;;10.48;60.68
70248;BME280;57641;51.416;5.506;2023-02-11T00:52:36;103563.88;;;10.52;60.49
70248;BME280;57641;51.416;5.506;2023-02-11T00:55:01;103567.97;;;10.57;60.31
70248;BME280;57641;51.416;5.506;2023-02-11T00:57:27;103559.97;;;10.42;61.00
70248;BME280;57641;51.416;5.506;2023-02-11T00:59:53;103565.56;;;10.69;59.53
70248;BME280;57641;51.416;5.506;2023-02-11T01:02:18;103568.75;;;10.59;59.46
70248;BME280;57641;51.416;5.506;2023-02-11T01:04:50;103571.09;;;10.66;59.50
70248;BME280;57641;51.416;5.506;2023-02-11T01:07:15;103577.28;;;10.66;59.64
70248;BME280;57641;51.416;5.506;2023-02-11T01:09:41;103578.47;;;10.76;59.36
70248;BME280;57641;51.416;5.506;2023-02-11T01:12:06;103576.59;;;10.78;59.86
70248;BME280;57641;51.416;5.506;2023-02-11T01:14:31;103576.81;;;10.74;59.12
70248;BME280;57641;51.416;5.506;2023-02-11T01:16:57;103578.91;;;10.69;59.81
70248;BME280;57641;51.416;5.506;2023-02-11T01:19:23;103577.69;;;10.74;59.56
70248;BME280;57641;51.416;5.506;2023-02-11T01:21:49;103582.34;;;10.71;60.02
70248;BME280;57641;51.416;5.506;2023-02-11T01:24:14;103580.72;;;10.68;59.24
70248;BME280;57641;51.416;5.506;2023-02-11T01:26:40;103580.28;;;10.60;58.93
70248;BME280;57641;51.416;5.506;2023-02-11T01:29:06;103580.72;;;10.68;59.73
70248;BME280;57641;51.416;5.506;2023-02-11T01:31:33;103570.22;;;10.49;59.57
70248;BME280;57641;51.416;5.506;2023-02-11T01:34:00;103581.56;;;10.69;60.25
70248;BME280;57641;51.416;5.506;2023-02-11T01:36:26;103578.91;;;10.69;59.97
70248;BME280;57641;51.416;5.506;2023-02-11T01:38:51;103591.56;;;10.65;59.38
70248;BME280;57641;51.416;5.506;2023-02-11T01:41:17;103588.81;;;10.67;59.22
70248;BME280;57641;51.416;5.506;2023-02-11T01:43:50;103589.41;;;10.72;59.15
70248;BME280;57641;51.416;5.506;2023-02-11T01:51:33;103570.81;;;10.54;60.25
70248;BME280;57641;51.416;5.506;2023-02-11T01:54:02;103564.81;;;10.51;60.19
70248;BME280;57641;51.416;5.506;2023-02-11T01:56:50;103563.69;;;10.24;61.00
70248;BME280;57641;51.416;5.506;2023-02-11T02:02:23;103562.75;;;10.40;60.41
70248;BME280;57641;51.416;5.506;2023-02-11T02:05:06;103555.09;;;10.34;60.56
70248;BME280;57641;51.416;5.506;2023-02-11T02:10:25;103530.59;;;10.10;60.94
70248;BME280;57641;51.416;5.506;2023-02-11T02:12:54;103550.69;;;10.18;61.06
70248;BME280;57641;51.416;5.506;2023-02-11T02:15:31;103543.16;;;10.26;61.33
70248;BME280;57641;51.416;5.506;2023-02-11T02:18:08;103544.09;;;10.40;61.08
70248;BME280;57641;51.416;5.506;2023-02-11T02:23:51;103553.44;;;10.32;61.48
70248;BME280;57641;51.416;5.506;2023-02-11T02:34:50;103539.56;;;10.09;62.14
70248;BME280;57641;51.416;5.506;2023-02-11T02:37:40;103533.03;;;10.15;61.70
70248;BME280;57641;51.416;5.506;2023-02-11T02:40:11;103537.97;;;10.23;61.86
70248;BME280;57641;51.416;5.506;2023-02-11T02:42:41;103543.91;;;10.28;61.57
70248;BME280;57641;51.416;5.506;2023-02-11T02:45:10;103551.16;;;10.26;61.36
70248;BME280;57641;51.416;5.506;2023-02-11T02:47:37;103552.94;;;10.41;60.57
70248;BME280;57641;51.416;5.506;2023-02-11T02:50:04;103547.25;;;10.31;61.44
70248;BME280;57641;51.416;5.506;2023-02-11T02:53:08;103544.75;;;10.44;61.57
70248;BME280;57641;51.416;5.506;2023-02-11T02:55:40;103539.97;;;10.35;60.72
70248;BME280;57641;51.416;5.506;2023-02-11T02:58:28;103537.03;;;10.39;61.05
70248;BME280;57641;51.416;5.506;2023-02-11T03:03:58;103531.94;;;10.19;61.49
70248;BME280;57641;51.416;5.506;2023-02-11T03:09:24;103528.94;;;10.25;61.24
70248;BME280;57641;51.416;5.506;2023-02-11T03:11:50;103524.22;;;10.30;61.25
70248;BME280;57641;51.416;5.506;2023-02-11T03:14:17;103525.69;;;10.36;61.47
70248;BME280;57641;51.416;5.506;2023-02-11T03:16:46;103531.16;;;10.33;60.98
70248;BME280;57641;51.416;5.506;2023-02-11T03:19:20;103535.28;;;10.54;60.59
70248;BME280;57641;51.416;5.506;2023-02-11T03:21:48;103530.75;;;10.56;60.95
70248;BME280;57641;51.416;5.506;2023-02-11T03:24:32;103529.59;;;10.60;60.02
70248;BME280;57641;51.416;5.506;2023-02-11T03:27:20;103530.81;;;10.54;60.35
70248;BME280;57641;51.416;5.506;2023-02-11T03:29:58;103520.50;;;10.48;60.51
70248;BME280;57641;51.416;5.506;2023-02-11T03:32:28;103523.25;;;10.47;60.90
70248;BME280;57641;51.416;5.506;2023-02-11T03:35:23;103526.38;;;10.24;62.16
70248;BME280;57641;51.416;5.506;2023-02-11T03:40:44;103529.97;;;10.38;61.43
70248;BME280;57641;51.416;5.506;2023-02-11T03:43:39;103534.09;;;10.44;60.90
70248;BME280;57641;51.416;5.506;2023-02-11T03:46:07;103532.81;;;10.35;61.56
70248;BME280;57641;51.416;5.506;2023-02-11T03:48:39;103535.16;;;10.41;61.37
70248;BME280;57641;51.416;5.506;2023-02-11T03:51:08;103535.16;;;10.26;61.29
70248;BME280;57641;51.416;5.506;2023-02-11T03:53:36;103537.97;;;10.54;61.23
70248;BME280;57641;51.416;5.506;2023-02-11T03:56:05;103541.06;;;10.62;60.48
70248;BME280;57641;51.416;5.506;2023-02-11T03:58:33;103543.63;;;10.32;61.80
70248;BME280;57641;51.416;5.506;2023-02-11T04:00:59;103528.56;;;10.47;61.35
70248;BME280;57641;51.416;5.506;2023-02-11T04:03:26;103530.56;;;10.59;61.68
70248;BME280;57641;51.416;5.506;2023-02-11T04:05:52;103521.09;;;10.53;61.71
70248;BME280;57641;51.416;5.506;2023-02-11T04:08:20;103525.91;;;10.63;61.17
70248;BME280;57641;51.416;5.506;2023-02-11T04:10:45;103521.25;;;10.66;60.80
70248;BME280;57641;51.416;5.506;2023-02-11T04:13:12;103526.66;;;10.65;60.94
70248;BME280;57641;51.416;5.506;2023-02-11T04:15:38;103516.34;;;10.58;61.13
70248;BME280;57641;51.416;5.506;2023-02-11T04:18:04;103506.28;;;10.64;61.02
70248;BME280;57641;51.416;5.506;2023-02-11T04:20:30;103508.25;;;10.60;61.44
70248;BME280;57641;51.416;5.506;2023-02-11T04:22:56;103501.81;;;10.48;61.91
70248;BME280;57641;51.416;5.506;2023-02-11T04:25:21;103495.88;;;10.43;61.72
70248;BME280;57641;51.416;5.506;2023-02-11T04:27:47;103495.28;;;10.38;62.19
70248;BME280;57641;51.416;5.506;2023-02-11T04:30:12;103492.34;;;10.43;61.99
70248;BME280;57641;51.416;5.506;2023-02-11T04:32:39;103490.81;;;10.54;61.38
70248;BME280;57641;51.416;5.506;2023-02-11T04:35:05;103491.47;;;10.58;61.81
70248;BME280;57641;51.416;5.506;2023-02-11T04:37:31;103499.16;;;10.33;61.99
70248;BME280;57641;51.416;5.506;2023-02-11T04:39:57;103490.81;;;10.54;61.68
70248;BME280;57641;51.416;5.506;2023-02-11T04:42:23;103508.97;;;10.48;62.29
70248;BME280;57641;51.416;5.506;2023-02-11T04:44:48;103511.47;;;10.51;61.79
70248;BME280;57641;51.416;5.506;2023-02-11T04:47:14;103508.53;;;10.55;61.69
70248;BME280;57641;51.416;5.506;2023-02-11T04:49:41;103516.28;;;10.44;61.94
70248;BME280;57641;51.416;5.506;2023-02-11T04:52:09;103513.09;;;10.38;62.38
70248;BME280;57641;51.416;5.506;2023-02-11T04:54:35;103509.31;;;10.42;61.53
70248;BME280;57641;51.416;5.506;2023-02-11T04:57:02;103509.50;;;10.39;62.37
70248;BME280;57641;51.416;5.506;2023-02-11T04:59:28;103514.56;;;10.43;62.11
70248;BME280;57641;51.416;5.506;2023-02-11T05:01:54;103509.84;;;10.33;62.19
70248;BME280;57641;51.416;5.506;2023-02-11T05:04:21;103512.75;;;10.44;62.20
70248;BME280;57641;51.416;5.506;2023-02-11T05:06:50;103515.69;;;10.39;62.32
70248;BME280;57641;51.416;5.506;2023-02-11T05:09:16;103512.56;;;10.47;62.22
70248;BME280;57641;51.416;5.506;2023-02-11T05:11:42;103518.25;;;10.56;61.81
70248;BME280;57641;51.416;5.506;2023-02-11T05:14:08;103522.41;;;10.46;62.02
70248;BME280;57641;51.416;5.506;2023-02-11T05:16:35;103518.34;;;10.55;62.34
70248;BME280;57641;51.416;5.506;2023-02-11T05:19:03;103517.56;;;10.53;61.99
70248;BME280;57641;51.416;5.506;2023-02-11T05:21:31;103512.56;;;10.47;62.83
70248;BME280;57641;51.416;5.506;2023-02-11T05:23:57;103509.81;;;10.48;62.19
70248;BME280;57641;51.416;5.506;2023-02-11T05:26:23;103518.97;;;10.44;62.65
70248;BME280;57641;51.416;5.506;2023-02-11T05:28:48;103515.88;;;10.52;62.22
70248;BME280;57641;51.416;5.506;2023-02-11T05:31:14;103503.19;;;10.55;62.72
70248;BME280;57641;51.416;5.506;2023-02-11T05:33:42;103500.25;;;10.60;62.75
70248;BME280;57641;51.416;5.506;2023-02-11T05:36:10;103497.78;;;10.57;62.30
70248;BME280;57641;51.416;5.506;2023-02-11T05:38:36;103500.59;;;10.54;62.79
70248;BME280;57641;51.416;5.506;2023-02-11T05:41:04;103502.16;;;10.58;62.68
70248;BME280;57641;51.416;5.506;2023-02-11T05:43:30;103502.59;;;10.66;61.71
70248;BME280;57641;51.416;5.506;2023-02-11T05:45:56;103502.06;;;10.59;61.67
70248;BME280;57641;51.416;5.506;2023-02-11T05:48:23;103488.22;;;10.53;62.17
70248;BME280;57641;51.416;5.506;2023-02-11T05:50:49;103497.41;;;10.63;62.16
70248;BME280;57641;51.416;5.506;2023-02-11T05:53:15;103486.13;;;10.58;62.08
70248;BME280;57641;51.416;5.506;2023-02-11T05:55:41;103495.94;;;10.57;62.05
70248;BME280;57641;51.416;5.506;2023-02-11T05:58:07;103492.66;;;10.68;62.27
70248;BME280;57641;51.416;5.506;2023-02-11T06:00:33;103503.00;;;10.58;61.62
70248;BME280;57641;51.416;5.506;2023-02-11T06:02:58;103500.84;;;10.65;62.84
70248;BME280;57641;51.416;5.506;2023-02-11T06:05:25;103506.72;;;10.56;61.93
70248;BME280;57641;51.416;5.506;2023-02-11T06:07:50;103505.66;;;10.74;62.56
70248;BME280;57641;51.416;5.506;2023-02-11T06:10:16;103510.53;;;10.82;61.33
70248;BME280;57641;51.416;5.506;2023-02-11T06:12:42;103508.75;;;10.82;62.06
70248;BME280;57641;51.416;5.506;2023-02-11T06:15:12;103507.66;;;10.71;61.81
70248;BME280;57641;51.416;5.506;2023-02-11T06:17:38;103508.78;;;10.67;62.59
70248;BME280;57641;51.416;5.506;2023-02-11T06:20:06;103510.63;;;10.80;62.05
70248;BME280;57641;51.416;5.506;2023-02-11T06:22:33;103507.13;;;10.64;62.39
70248;BME280;57641;51.416;5.506;2023-02-11T06:24:59;103509.53;;;10.69;62.39
70248;BME280;57641;51.416;5.506;2023-02-11T06:27:25;103509.13;;;10.61;62.53
70248;BME280;57641;51.416;5.506;2023-02-11T06:29:51;103509.38;;;10.72;62.59
70248;BME280;57641;51.416;5.506;2023-02-11T06:32:20;103514.81;;;10.84;62.57
70248;BME280;57641;51.416;5.506;2023-02-11T06:34:46;103515.25;;;10.92;61.95
70248;BME280;57641;51.416;5.506;2023-02-11T06:37:11;103515.59;;;10.86;61.96
70248;BME280;57641;51.416;5.506;2023-02-11T06:39:46;103506.34;;;10.78;61.80
70248;BME280;57641;51.416;5.506;2023-02-11T06:42:11;103500.47;;;10.87;62.16
70248;BME280;57641;51.416;5.506;2023-02-11T06:44:37;103503.91;;;10.89;61.90
70248;BME280;57641;51.416;5.506;2023-02-11T06:47:03;103508.78;;;10.96;61.43
70248;BME280;57641;51.416;5.506;2023-02-11T06:49:30;103512.06;;;10.86;61.75
70248;BME280;57641;51.416;5.506;2023-02-11T06:51:56;103525.94;;;10.92;61.19
70248;BME280;57641;51.416;5.506;2023-02-11T06:54:21;103523.25;;;10.92;61.75
70248;BME280;57641;51.416;5.506;2023-02-11T06:56:47;103531.94;;;10.96;62.19
70248;BME280;57641;51.416;5.506;2023-02-11T06:59:18;103533.50;;;10.84;61.57
70248;BME280;57641;51.416;5.506;2023-02-11T07:01:47;103531.34;;;10.91;62.37
70248;BME280;57641;51.416;5.506;2023-02-11T07:04:13;103535.44;;;10.82;62.63
70248;BME280;57641;51.416;5.506;2023-02-11T07:06:42;103534.22;;;10.88;62.05
70248;BME280;57641;51.416;5.506;2023-02-11T07:09:08;103541.34;;;10.87;62.44
70248;BME280;57641;51.416;5.506;2023-02-11T07:11:37;103536.69;;;10.91;62.49
70248;BME280;57641;51.416;5.506;2023-02-11T07:14:06;103544.97;;;10.86;62.46
70248;BME280;57641;51.416;5.506;2023-02-11T07:16:34;103546.50;;;10.90;62.83
70248;BME280;57641;51.416;5.506;2023-02-11T07:19:01;103544.53;;;10.94;62.78
70248;BME280;57641;51.416;5.506;2023-02-11T07:21:26;103548.19;;;10.77;63.66
70248;BME280;57641;51.416;5.506;2023-02-11T07:23:55;103542.81;;;10.93;62.65
70248;BME280;57641;51.416;5.506;2023-02-11T07:26:22;103555.66;;;10.71;63.36
70248;BME280;57641;51.416;5.506;2023-02-11T07:28:49;103542.59;;;10.66;64.54
70248;BME280;57641;51.416;5.506;2023-02-11T07:31:21;103541.44;;;10.86;63.70
70248;BME280;57641;51.416;5.506;2023-02-11T07:33:47;103553.06;;;10.85;63.53
70248;BME280;57641;51.416;5.506;2023-02-11T07:36:17;103548.69;;;10.84;63.91
70248;BME280;57641;51.416;5.506;2023-02-11T07:38:44;103557.63;;;10.83;63.55
70248;BME280;57641;51.416;5.506;2023-02-11T07:41:14;103560.34;;;10.97;63.64
70248;BME280;57641;51.416;5.506;2023-02-11T07:43:42;103560.34;;;10.97;63.46
70248;BME280;57641;51.416;5.506;2023-02-11T07:46:14;103554.50;;;10.90;63.67
70248;BME280;57641;51.416;5.506;2023-02-11T07:48:40;103563.47;;;10.89;63.98
70248;BME280;57641;51.416;5.506;2023-02-11T07:51:17;103564.66;;;10.99;63.73
70248;BME280;57641;51.416;5.506;2023-02-11T07:53:44;103568.00;;;11.03;63.84
70248;BME280;57641;51.416;5.506;2023-02-11T07:56:12;103564.28;;;11.06;63.72
70248;BME280;57641;51.416;5.506;2023-02-11T07:58:38;103572.06;;;11.10;63.17
70248;BME280;57641;51.416;5.506;2023-02-11T08:01:19;103572.53;;;11.17;63.40
70248;BME280;57641;51.416;5.506;2023-02-11T08:03:47;103571.81;;;10.99;63.26
70248;BME280;57641;51.416;5.506;2023-02-11T08:06:14;103575.47;;;11.12;63.02
70248;BME280;57641;51.416;5.506;2023-02-11T08:08:42;103574.16;;;11.19;63.64
70248;BME280;57641;51.416;5.506;2023-02-11T08:11:13;103579.38;;;11.07;63.43
70248;BME280;57641;51.416;5.506;2023-02-11T08:13:40;103578.50;;;11.06;63.60
70248;BME280;57641;51.416;5.506;2023-02-11T08:16:07;103586.63;;;11.05;63.57
70248;BME280;57641;51.416;5.506;2023-02-11T08:18:35;103576.78;;;11.05;63.65
70248;BME280;57641;51.416;5.506;2023-02-11T08:21:08;103592.03;;;11.03;63.73
70248;BME280;57641;51.416;5.506;2023-02-11T08:23:40;103585.00;;;11.16;64.05
70248;BME280;57641;51.416;5.506;2023-02-11T08:26:13;103590.91;;;11.07;63.99
70248;BME280;57641;51.416;5.506;2023-02-11T08:28:41;103592.34;;;11.13;63.85
70248;BME280;57641;51.416;5.506;2023-02-11T08:31:13;103586.88;;;11.00;64.37
70248;BME280;57641;51.416;5.506;2023-02-11T08:33:39;103601.25;;;10.97;64.82
70248;BME280;57641;51.416;5.506;2023-02-11T08:36:10;103593.22;;;11.13;64.67
70248;BME280;57641;51.416;5.506;2023-02-11T08:38:37;103597.31;;;11.05;64.43
70248;BME280;57641;51.416;5.506;2023-02-11T08:41:05;103602.09;;;11.14;64.36
70248;BME280;57641;51.416;5.506;2023-02-11T08:43:35;103612.06;;;11.26;64.33
70248;BME280;57641;51.416;5.506;2023-02-11T08:46:02;103606.88;;;11.23;64.15
70248;BME280;57641;51.416;5.506;2023-02-11T08:48:29;103600.78;;;11.21;64.13
70248;BME280;57641;51.416;5.506;2023-02-11T08:50:58;103608.59;;;11.24;64.04
70248;BME280;57641;51.416;5.506;2023-02-11T08:53:24;103605.28;;;11.20;64.35
70248;BME280;57641;51.416;5.506;2023-02-11T08:55:52;103601.75;;;11.20;64.74
70248;BME280;57641;51.416;5.506;2023-02-11T08:58:20;103606.25;;;11.33;64.39
70248;BME280;57641;51.416;5.506;2023-02-11T09:00:47;103605.22;;;11.36;63.90
70248;BME280;57641;51.416;5.506;2023-02-11T09:03:16;103609.69;;;11.35;63.85
70248;BME280;57641;51.416;5.506;2023-02-11T09:05:44;103604.81;;;11.28;63.87
70248;BME280;57641;51.416;5.506;2023-02-11T09:08:10;103610.72;;;11.33;64.63
70248;BME280;57641;51.416;5.506;2023-02-11T09:10:37;103617.91;;;11.17;63.75
70248;BME280;57641;51.416;5.506;2023-02-11T09:13:03;103613.53;;;11.16;65.03
70248;BME280;57641;51.416;5.506;2023-02-11T09:15:29;103610.25;;;11.11;64.94
70248;BME280;57641;51.416;5.506;2023-02-11T09:17:55;103608.88;;;11.19;65.20
70248;BME280;57641;51.416;5.506;2023-02-11T09:20:22;103608.81;;;11.21;64.97
70248;BME280;57641;51.416;5.506;2023-02-11T09:22:49;103623.22;;;11.02;65.31
70248;BME280;57641;51.416;5.506;2023-02-11T09:25:14;103617.50;;;11.24;64.82
70248;BME280;57641;51.416;5.506;2023-02-11T09:27:41;103612.31;;;11.21;64.62
70248;BME280;57641;51.416;5.506;2023-02-11T09:30:13;103617.41;;;11.26;65.21
70248;BME280;57641;51.416;5.506;2023-02-11T09:32:39;103624.28;;;11.30;64.83
70248;BME280;57641;51.416;5.506;2023-02-11T09:35:05;103626.19;;;11.42;64.40
70248;BME280;57641;51.416;5.506;2023-02-11T09:37:34;103622.69;;;11.41;64.71
70248;BME280;57641;51.416;5.506;2023-02-11T09:40:00;103627.13;;;11.27;64.30
70248;BME280;57641;51.416;5.506;2023-02-11T09:42:50;103632.69;;;11.38;64.71
70248;BME280;57641;51.416;5.506;2023-02-11T09:45:23;103637.75;;;11.42;64.46
70248;BME280;57641;51.416;5.506;2023-02-11T09:50:38;103644.75;;;11.45;64.81
70248;BME280;57641;51.416;5.506;2023-02-11T09:55:41;103640.81;;;11.36;64.71
70248;BME280;57641;51.416;5.506;2023-02-11T09:58:14;103649.44;;;11.56;64.78
70248;BME280;57641;51.416;5.506;2023-02-11T10:03:59;103654.31;;;11.63;64.02
70248;BME280;57641;51.416;5.506;2023-02-11T10:20:47;103672.28;;;11.61;63.69
70248;BME280;57641;51.416;5.506;2023-02-11T10:23:32;103675.16;;;11.72;64.82
70248;BME280;57641;51.416;5.506;2023-02-11T10:26:00;103682.28;;;11.73;64.16
70248;BME280;57641;51.416;5.506;2023-02-11T10:28:35;103676.94;;;11.73;64.66
70248;BME280;57641;51.416;5.506;2023-02-11T10:31:33;103679.50;;;11.75;64.56
70248;BME280;57641;51.416;5.506;2023-02-11T10:34:11;103679.63;;;11.88;63.32
70248;BME280;57641;51.416;5.506;2023-02-11T10:36:40;103688.59;;;11.87;63.95
70248;BME280;57641;51.416;5.506;2023-02-11T10:44:35;103684.59;;;11.94;63.13
70248;BME280;57641;51.416;5.506;2023-02-11T10:47:04;103679.25;;;11.94;63.58
70248;BME280;57641;51.416;5.506;2023-02-11T10:49:41;103683.00;;;12.05;63.53
70248;BME280;57641;51.416;5.506;2023-02-11T10:55:03;103686.34;;;12.09;63.22
70248;BME280;57641;51.416;5.506;2023-02-11T10:57:41;103686.41;;;11.93;63.38
70248;BME280;57641;51.416;5.506;2023-02-11T11:02:43;103692.34;;;11.98;63.90
70248;BME280;57641;51.416;5.506;2023-02-11T11:05:18;103702.91;;;11.85;63.80
70248;BME280;57641;51.416;5.506;2023-02-11T11:10:46;103705.78;;;11.97;62.88
70248;BME280;57641;51.416;5.506;2023-02-11T11:13:35;103700.28;;;12.14;63.16
70248;BME280;57641;51.416;5.506;2023-02-11T11:18:36;103695.97;;;12.11;63.33
70248;BME280;57641;51.416;5.506;2023-02-11T11:21:22;103700.28;;;12.14;63.41
70248;BME280;57641;51.416;5.506;2023-02-11T11:23:55;103708.69;;;12.22;62.80
70248;BME280;57641;51.416;5.506;2023-02-11T11:26:23;103701.34;;;12.25;63.14
70248;BME280;57641;51.416;5.506;2023-02-11T11:31:32;103698.75;;;12.10;62.68
70248;BME280;57641;51.416;5.506;2023-02-11T11:34:01;103699.06;;;12.19;63.01
70248;BME280;57641;51.416;5.506;2023-02-11T11:36:35;103703.13;;;12.11;62.87
70248;BME280;57641;51.416;5.506;2023-02-11T11:41:56;103708.69;;;12.22;63.72
70248;BME280;57641;51.416;5.506;2023-02-11T11:52:47;103704.69;;;12.29;63.00
70248;BME280;57641;51.416;5.506;2023-02-11T11:55:18;103696.09;;;12.38;62.63
70248;BME280;57641;51.416;5.506;2023-02-11T11:57:45;103700.13;;;12.31;62.99
70248;BME280;57641;51.416;5.506;2023-02-11T12:08:43;103698.66;;;12.40;62.67
70248;BME280;57641;51.416;5.506;2023-02-11T12:11:46;103697.53;;;12.44;62.81
70248;BME280;57641;51.416;5.506;2023-02-11T12:17:22;103695.63;;;12.46;62.37
70248;BME280;57641;51.416;5.506;2023-02-11T12:20:18;103693.63;;;12.35;63.03
70248;BME280;57641;51.416;5.506;2023-02-11T12:25:37;103679.16;;;12.38;62.53
70248;BME280;57641;51.416;5.506;2023-02-11T12:28:57;103676.03;;;12.45;62.37
70248;BME280;57641;51.416;5.506;2023-02-11T12:34:06;103670.00;;;12.56;62.04
70248;BME280;57641;51.416;5.506;2023-02-11T12:47:56;103667.03;;;12.46;62.88
70248;BME280;57641;51.416;5.506;2023-02-11T12:50:40;103665.25;;;12.47;62.87
70248;BME280;57641;51.416;5.506;2023-02-11T12:59:50;103664.03;;;12.65;62.12
70248;BME280;57641;51.416;5.506;2023-02-11T13:10:40;103660.84;;;12.46;62.95
70248;BME280;57641;51.416;5.506;2023-02-11T13:13:21;103658.69;;;12.65;62.79
70248;BME280;57641;51.416;5.506;2023-02-11T13:16:06;103669.28;;;12.81;62.39
70248;BME280;57641;51.416;5.506;2023-02-11T13:21:32;103655.31;;;12.90;62.31
70248;BME280;57641;51.416;5.506;2023-02-11T13:32:12;103659.34;;;13.09;61.21
70248;BME280;57641;51.416;5.506;2023-02-11T13:37:35;103656.72;;;12.95;62.07
70248;BME280;57641;51.416;5.506;2023-02-11T13:40:05;103653.81;;;13.13;62.07
70248;BME280;57641;51.416;5.506;2023-02-11T13:43:01;103661.16;;;13.09;61.59
70248;BME280;57641;51.416;5.506;2023-02-11T13:45:47;103655.91;;;13.07;61.77
70248;BME280;57641;51.416;5.506;2023-02-11T13:48:25;103652.94;;;13.12;61.70
70248;BME280;57641;51.416;5.506;2023-02-11T13:51:00;103649.31;;;13.13;61.55
70248;BME280;57641;51.416;5.506;2023-02-11T13:53:28;103648.38;;;13.14;61.60
70248;BME280;57641;51.416;5.506;2023-02-11T13:56:07;103646.44;;;13.16;61.65
70248;BME280;57641;51.416;5.506;2023-02-11T13:58:36;103651.28;;;13.24;61.29
70248;BME280;57641;51.416;5.506;2023-02-11T14:01:05;103651.69;;;13.18;61.22
70248;BME280;57641;51.416;5.506;2023-02-11T14:03:37;103645.75;;;13.27;61.60
70248;BME280;57641;51.416;5.506;2023-02-11T14:06:28;103655.03;;;13.21;60.84
70248;BME280;57641;51.416;5.506;2023-02-11T14:14:22;103646.94;;;13.35;60.71
70248;BME280;57641;51.416;5.506;2023-02-11T14:19:38;103657.03;;;13.44;61.29
70248;BME280;57641;51.416;5.506;2023-02-11T14:25:04;103655.84;;;13.36;60.55
70248;BME280;57641;51.416;5.506;2023-02-11T14:30:25;103655.59;;;13.39;60.62
70248;BME280;57641;51.416;5.506;2023-02-11T14:41:11;103657.75;;;13.34;60.96
70248;BME280;57641;51.416;5.506;2023-02-11T14:43:42;103659.56;;;13.33;60.65
70248;BME280;57641;51.416;5.506;2023-02-11T14:46:10;103661.91;;;13.25;60.52
70248;BME280;57641;51.416;5.506;2023-02-11T14:48:38;103652.34;;;13.48;60.53
70248;BME280;57641;51.416;5.506;2023-02-11T14:53:48;103659.66;;;13.59;60.50
70248;BME280;57641;51.416;5.506;2023-02-11T14:56:24;103664.69;;;13.63;60.14
70248;BME280;57641;51.416;5.506;2023-02-11T14:58:53;103664.47;;;13.66;59.78
70248;BME280;57641;51.416;5.506;2023-02-11T15:01:31;103661.28;;;13.74;59.87
70248;BME280;57641;51.416;5.506;2023-02-11T15:04:05;103663.59;;;13.66;59.61
70248;BME280;57641;51.416;5.506;2023-02-11T15:06:38;103666.69;;;13.60;60.24
70248;BME280;57641;51.416;5.506;2023-02-11T15:09:13;103675.09;;;13.68;60.07
70248;BME280;57641;51.416;5.506;2023-02-11T15:11:44;103680.09;;;13.47;60.63
70248;BME280;57641;51.416;5.506;2023-02-11T15:14:25;103677.75;;;13.55;60.37
70248;BME280;57641;51.416;5.506;2023-02-11T15:16:53;103671.31;;;13.58;60.20
70248;BME280;57641;51.416;5.506;2023-02-11T15:19:27;103680.19;;;13.45;60.39
70248;BME280;57641;51.416;5.506;2023-02-11T15:21:56;103665.75;;;13.61;59.87
70248;BME280;57641;51.416;5.506;2023-02-11T15:24:28;103670.78;;;13.52;60.28
70248;BME280;57641;51.416;5.506;2023-02-11T15:27:01;103674.88;;;13.58;60.75
70248;BME280;57641;51.416;5.506;2023-02-11T15:29:35;103671.50;;;13.54;60.75
70248;BME280;57641;51.416;5.506;2023-02-11T15:32:22;103679.91;;;13.63;60.13
70248;BME280;57641;51.416;5.506;2023-02-11T15:34:51;103689.31;;;13.56;59.96
70248;BME280;57641;51.416;5.506;2023-02-11T15:37:28;103687.72;;;13.66;60.41
70248;BME280;57641;51.416;5.506;2023-02-11T15:40:11;103689.78;;;13.62;60.09
70248;BME280;57641;51.416;5.506;2023-02-11T15:42:59;103687.81;;;13.64;59.87
70248;BME280;57641;51.416;5.506;2023-02-11T15:48:15;103692.09;;;13.54;60.56
70248;BME280;57641;51.416;5.506;2023-02-11T15:50:54;103695.94;;;13.50;60.53
70248;BME280;57641;51.416;5.506;2023-02-11T15:53:38;103694.22;;;13.49;60.92
70248;BME280;57641;51.416;5.506;2023-02-11T15:56:22;103695.31;;;13.46;60.76